M I D A S
Marine Information and Data Acquisition System
Tripno 1333 of the Zeeleeuw from 2007-06-07 05:49:06 to 2007-06-07 10:22:00
Back to CruiseResearch ActivitiesStationsMapUnderway DataData graphs

EquipmentUnitsComment
TimeDGPSUTC
LatitudeDGPSDM.mWGS84
LongitudeDGPSDM.mWGS84
HeadingGyrodeg 
SOGDGPSknotsSpeed over ground
COGDGPSdegCourse over ground
DepthEcho soundermeters200 kHz
Missing or incorrect values are displayed as -999
Navigation data collected by the RV Zeeleeuw from 2007-06-07 05:53:11 to 2007-06-07 10:32:34
                                                                                    Next 1000 lines
Time Latitude Longitude Heading SOG COG Depth
2007-06-07 05:53:21 51°13.58 2°56.131 113.2 0.9 281 10.4
2007-06-07 05:53:26 51°13.581 2°56.128 113 1.2 287 10.4
2007-06-07 05:53:31 51°13.581 2°56.124 113 1.6 288 10.6
2007-06-07 05:53:36 51°13.582 2°56.12 113.6 2 290 10.5
2007-06-07 05:53:41 51°13.584 2°56.116 114.8 2.4 291 -999
2007-06-07 05:53:46 51°13.585 2°56.111 116.3 2.6 294 -999
2007-06-07 05:53:51 51°13.586 2°56.105 117.5 2.9 293 -999
2007-06-07 05:53:56 51°13.588 2°56.099 117.9 3.2 295 -999
2007-06-07 05:54:01 51°13.59 2°56.091 118.6 3.6 296 -999
2007-06-07 05:54:06 51°13.593 2°56.084 119.3 3.9 296 -999
2007-06-07 05:54:11 51°13.595 2°56.076 120.1 4.2 297 -999
2007-06-07 05:54:16 51°13.598 2°56.067 120.7 4.4 297 -999
2007-06-07 05:54:21 51°13.601 2°56.058 121.3 4.6 298 -999
2007-06-07 05:54:27 51°13.605 2°56.047 121.9 4.8 299 -999
2007-06-07 05:54:31 51°13.607 2°56.04 122.7 4.9 299 -999
2007-06-07 05:54:36 51°13.611 2°56.03 123.5 5 299 -999
2007-06-07 05:54:41 51°13.614 2°56.02 124.1 5.2 300 -999
2007-06-07 05:54:46 51°13.618 2°56.01 124.5 5.2 300 -999
2007-06-07 05:54:52 51°13.623 2°55.998 125.4 5.3 301 -999
2007-06-07 05:54:56 51°13.626 2°55.99 126 5.4 302 -999
2007-06-07 05:55:01 51°13.63 2°55.98 126.8 5.5 303 -999
2007-06-07 05:55:06 51°13.634 2°55.97 127.8 5.5 303 -999
2007-06-07 05:55:11 51°13.638 2°55.96 128.5 5.5 304 -999
2007-06-07 05:55:16 51°13.643 2°55.95 129.1 5.6 305 -999
2007-06-07 05:55:21 51°13.647 2°55.939 129.5 5.7 306 -999
2007-06-07 05:55:26 51°13.652 2°55.929 129.8 5.7 306 -999
2007-06-07 05:55:31 51°13.657 2°55.919 129.8 5.6 307 -999
2007-06-07 05:55:37 51°13.662 2°55.907 129.5 5.6 306 -999
2007-06-07 05:55:41 51°13.666 2°55.899 128.9 5.5 306 -999
2007-06-07 05:55:46 51°13.67 2°55.889 128.3 5.5 306 -999
2007-06-07 05:55:51 51°13.675 2°55.879 127.7 5.6 305 -999
2007-06-07 05:55:56 51°13.679 2°55.869 127.3 5.6 305 -999
2007-06-07 05:56:01 51°13.683 2°55.859 127 5.7 304 -999
2007-06-07 05:56:06 51°13.688 2°55.848 126.8 5.8 304 -999
2007-06-07 05:56:11 51°13.692 2°55.837 126.5 5.8 303 -999
2007-06-07 05:56:16 51°13.697 2°55.826 126.5 5.9 303 -999
2007-06-07 05:56:21 51°13.701 2°55.815 127.1 6 303 -999
2007-06-07 05:56:26 51°13.706 2°55.804 128.2 6 304 -999
2007-06-07 05:56:31 51°13.711 2°55.793 129.6 6.1 305 -999
2007-06-07 05:56:36 51°13.716 2°55.782 131.3 6.2 307 -999
2007-06-07 05:56:41 51°13.721 2°55.772 133.2 6.2 308 -999
2007-06-07 05:56:47 51°13.728 2°55.759 135.2 6.2 310 -999
2007-06-07 05:56:51 51°13.732 2°55.751 137.2 6.2 312 -999
2007-06-07 05:56:56 51°13.738 2°55.741 139.3 6.2 314 -999
2007-06-07 05:57:01 51°13.745 2°55.731 141.4 6.2 316 -999
2007-06-07 05:57:07 51°13.752 2°55.72 143.7 6.2 318 -999
2007-06-07 05:57:12 51°13.759 2°55.711 146 6.2 320 -999
2007-06-07 05:57:16 51°13.764 2°55.704 148 6.3 323 -999
2007-06-07 05:57:21 51°13.771 2°55.696 149.6 6.3 324 -999
2007-06-07 05:57:26 51°13.779 2°55.689 150.9 6.2 326 -999
2007-06-07 05:57:32 51°13.787 2°55.68 152.5 6.2 328 -999
2007-06-07 05:57:37 51°13.794 2°55.673 153.8 6 329 -999
2007-06-07 05:57:41 51°13.8 2°55.668 155 6 331 -999
2007-06-07 05:57:46 51°13.808 2°55.662 156.4 5.9 332 -999
2007-06-07 05:57:51 51°13.815 2°55.656 158.6 5.7 335 -999
2007-06-07 05:57:57 51°13.823 2°55.65 161.9 5.5 337 -999
2007-06-07 05:58:01 51°13.828 2°55.647 164.8 5.2 340 -999
2007-06-07 05:58:06 51°13.835 2°55.644 167.8 5 342 -999
2007-06-07 05:58:11 51°13.842 2°55.641 170.3 4.8 344 -999
2007-06-07 05:58:16 51°13.848 2°55.638 174.1 4.5 347 -999
2007-06-07 05:58:21 51°13.853 2°55.636 177.2 4.3 349 -999
2007-06-07 05:58:26 51°13.859 2°55.635 180.1 4.1 351 -999
2007-06-07 05:58:31 51°13.864 2°55.634 182.9 3.8 354 -999
2007-06-07 05:58:36 51°13.869 2°55.633 185.8 3.7 356 -999
2007-06-07 05:58:41 51°13.874 2°55.633 187.9 3.5 -999 4.8
2007-06-07 05:58:46 51°13.879 2°55.633 190.1 3.3 -999 4.7
2007-06-07 05:58:51 51°13.883 2°55.634 192.1 3.2 3 5
2007-06-07 05:58:56 51°13.888 2°55.634 194.7 3 5 -999
2007-06-07 05:59:01 51°13.891 2°55.635 197.9 2.8 7 5
2007-06-07 05:59:06 51°13.895 2°55.636 200.3 2.7 10 -999
2007-06-07 05:59:11 51°13.899 2°55.637 202.6 2.6 12 4.7
2007-06-07 05:59:16 51°13.902 2°55.638 205 2.4 14 -999
2007-06-07 05:59:21 51°13.905 2°55.64 206.8 2.3 16 4.8
2007-06-07 05:59:26 51°13.908 2°55.641 209 2.2 17 13
2007-06-07 05:59:31 51°13.911 2°55.643 211.2 2.1 19 4.8
2007-06-07 05:59:36 51°13.913 2°55.644 213.3 2 22 -999
2007-06-07 05:59:41 51°13.915 2°55.646 215.8 1.9 24 4.9
2007-06-07 05:59:46 51°13.918 2°55.648 217.8 1.9 25 4.9
2007-06-07 05:59:51 51°13.92 2°55.65 219.5 1.8 28 4.9
2007-06-07 05:59:56 51°13.922 2°55.651 221.4 1.7 30 13
2007-06-07 06:00:01 51°13.924 2°55.653 223.5 1.7 33 5.3
2007-06-07 06:00:06 51°13.926 2°55.655 225 1.6 33 12.9
2007-06-07 06:00:11 51°13.928 2°55.657 226.6 1.5 36 13
2007-06-07 06:00:16 51°13.929 2°55.659 228.3 1.5 37 13
2007-06-07 06:00:21 51°13.931 2°55.661 229.9 1.4 40 13
2007-06-07 06:00:26 51°13.932 2°55.664 231.5 1.4 39 13
2007-06-07 06:00:31 51°13.934 2°55.665 232.9 1.3 42 13
2007-06-07 06:00:36 51°13.935 2°55.667 234.3 1.3 43 12.9
2007-06-07 06:00:41 51°13.936 2°55.669 235.6 1.2 48 12.9
2007-06-07 06:00:46 51°13.937 2°55.671 236.7 1.1 46 12.7
2007-06-07 06:00:51 51°13.938 2°55.673 238 1.1 52 12.5
2007-06-07 06:00:56 51°13.939 2°55.675 239.3 1.1 49 12.6
2007-06-07 06:01:01 51°13.94 2°55.677 240.5 1 55 12.6
2007-06-07 06:01:06 51°13.941 2°55.678 241.5 1 53 12.7
2007-06-07 06:01:11 51°13.942 2°55.68 242.5 0.9 60 12.8
2007-06-07 06:01:16 51°13.942 2°55.681 243.3 0.9 55 12.8
2007-06-07 06:01:21 51°13.943 2°55.683 244.1 0.9 63 12.8
2007-06-07 06:01:26 51°13.943 2°55.685 244.8 0.8 61 12.9
2007-06-07 06:01:31 51°13.944 2°55.686 245.4 0.8 66 13.2
2007-06-07 06:01:36 51°13.944 2°55.688 245.9 0.8 66 13.2
2007-06-07 06:01:41 51°13.944 2°55.689 246.3 0.7 72 13.1
2007-06-07 06:01:46 51°13.945 2°55.691 246.8 0.7 69 13
2007-06-07 06:01:51 51°13.945 2°55.692 247.1 0.7 76 13
2007-06-07 06:01:56 51°13.945 2°55.694 247.5 0.6 75 12.9
2007-06-07 06:02:01 51°13.946 2°55.695 248 0.6 80 -999
2007-06-07 06:02:06 51°13.946 2°55.696 248.3 0.6 77 12.7
2007-06-07 06:02:11 51°13.946 2°55.697 248.6 0.5 82 12.7
2007-06-07 06:02:16 51°13.946 2°55.698 248.7 0.4 81 12.6
2007-06-07 06:02:21 51°13.946 2°55.699 248.9 0.4 94 12.8
2007-06-07 06:02:26 51°13.946 2°55.7 248.9 0.3 87 12.8
2007-06-07 06:02:31 51°13.946 2°55.701 249.2 0.3 106 12.7
2007-06-07 06:02:36 51°13.946 2°55.701 249.4 0.2 98 12.6
2007-06-07 06:02:41 51°13.946 2°55.702 249.8 0.2 117 12.6
2007-06-07 06:02:46 51°13.945 2°55.702 250 0.2 122 12.7
2007-06-07 06:02:51 51°13.945 2°55.703 250.4 0.2 140 12.7
2007-06-07 06:02:56 51°13.945 2°55.703 250.7 0.2 147 12.7
2007-06-07 06:03:01 51°13.945 2°55.703 251 0.2 173 12.8
2007-06-07 06:03:06 51°13.944 2°55.703 251.3 0.2 213 12.7
2007-06-07 06:03:11 51°13.944 2°55.702 252 0.5 235 -999
2007-06-07 06:03:16 51°13.944 2°55.7 253.3 0.9 256 12.7
2007-06-07 06:03:21 51°13.943 2°55.697 255.2 1.6 253 12.7
2007-06-07 06:03:26 51°13.943 2°55.692 259.4 2.3 266 12.9
2007-06-07 06:03:31 51°13.943 2°55.685 265.8 2.8 272 12.9
2007-06-07 06:03:36 51°13.944 2°55.678 273.6 3.4 283 -999
2007-06-07 06:03:41 51°13.945 2°55.671 282.2 3.8 291 12.7
2007-06-07 06:03:46 51°13.948 2°55.662 291 4.3 297 12.6
2007-06-07 06:03:51 51°13.952 2°55.653 299.7 5.2 303 12.5
2007-06-07 06:03:56 51°13.957 2°55.641 305.6 6.5 305 12.8
2007-06-07 06:04:01 51°13.963 2°55.628 308.4 7.3 308 12.6
2007-06-07 06:04:06 51°13.97 2°55.615 311.1 7.9 310 12.6
2007-06-07 06:04:11 51°13.978 2°55.601 314 8.6 313 12.6
2007-06-07 06:04:16 51°13.987 2°55.587 316.4 9.4 315 12.5
2007-06-07 06:04:21 51°13.997 2°55.572 317.9 9.8 316 12.7
2007-06-07 06:04:26 51°14.007 2°55.557 318.8 10.1 317 13
2007-06-07 06:04:31 51°14.019 2°55.542 320.8 10.3 320 12.9
2007-06-07 06:04:36 51°14.03 2°55.528 323.7 10.2 324 13
2007-06-07 06:04:41 51°14.041 2°55.515 327 10.1 324 13.1
2007-06-07 06:04:46 51°14.053 2°55.503 328.2 10 325 13.1
2007-06-07 06:04:51 51°14.064 2°55.491 329 9.8 326 13
2007-06-07 06:04:56 51°14.075 2°55.479 330.4 9.7 328 13.1
2007-06-07 06:05:01 51°14.086 2°55.467 331.4 9.6 327 13.1
2007-06-07 06:05:06 51°14.098 2°55.456 332.1 9.5 327 -999
2007-06-07 06:05:11 51°14.109 2°55.445 332 9.4 327 13
2007-06-07 06:05:16 51°14.12 2°55.434 331.8 9.5 328 4.8
2007-06-07 06:05:21 51°14.131 2°55.422 331.8 9.6 326 4.8
2007-06-07 06:05:26 51°14.142 2°55.409 331.5 9.7 323 -999
2007-06-07 06:05:31 51°14.153 2°55.396 328.9 9.8 322 4.9
2007-06-07 06:05:36 51°14.163 2°55.383 327.1 9.9 322 4.8
2007-06-07 06:05:41 51°14.174 2°55.37 327.4 9.9 324 13
2007-06-07 06:05:46 51°14.185 2°55.356 328.1 10 323 13
2007-06-07 06:05:51 51°14.197 2°55.343 327.7 10 324 12.9
2007-06-07 06:05:56 51°14.208 2°55.33 327.7 10 323 -999
2007-06-07 06:06:01 51°14.219 2°55.317 327.3 10.1 322 -999
2007-06-07 06:06:06 51°14.23 2°55.303 325.8 10.1 321 -999
2007-06-07 06:06:11 51°14.241 2°55.288 324.5 10.1 319 12.9
2007-06-07 06:06:16 51°14.251 2°55.273 322.7 10.1 316 12.9
2007-06-07 06:06:21 51°14.26 2°55.257 320.9 10.1 313 -999
2007-06-07 06:06:26 51°14.27 2°55.24 318.1 10.2 311 4.7
2007-06-07 06:06:31 51°14.279 2°55.222 315.7 10.3 310 12.9
2007-06-07 06:06:36 51°14.288 2°55.205 314.5 10.4 310 12.9
2007-06-07 06:06:41 51°14.297 2°55.187 314.3 10.3 309 12.7
2007-06-07 06:06:46 51°14.306 2°55.17 314.6 10.4 310 13
2007-06-07 06:06:51 51°14.316 2°55.152 315.1 10.5 311 12.9
2007-06-07 06:06:56 51°14.325 2°55.135 316.2 10.6 313 13
2007-06-07 06:07:01 51°14.336 2°55.118 317.8 10.7 315 13
2007-06-07 06:07:06 51°14.347 2°55.101 319.9 10.9 317 13.1
2007-06-07 06:07:11 51°14.358 2°55.085 322 11.2 318 13.4
2007-06-07 06:07:16 51°14.37 2°55.068 323.4 11.4 319 12.7
2007-06-07 06:07:21 51°14.382 2°55.052 324.6 11.7 320 13
2007-06-07 06:07:26 51°14.395 2°55.035 326 11.9 321 12.7
2007-06-07 06:07:31 51°14.408 2°55.018 326.6 12.3 321 12.8
2007-06-07 06:07:36 51°14.422 2°55.001 326.3 12.6 322 12.6
2007-06-07 06:07:41 51°14.436 2°54.984 327.2 12.8 324 12.4
2007-06-07 06:07:46 51°14.451 2°54.968 328 13 325 12.6
2007-06-07 06:07:51 51°14.466 2°54.951 329 13.1 326 12.3
2007-06-07 06:07:56 51°14.481 2°54.936 329.5 13 327 11.8
2007-06-07 06:08:01 51°14.497 2°54.921 330.1 12.9 330 11.5
2007-06-07 06:08:06 51°14.512 2°54.907 331.7 12.9 328 11.7
2007-06-07 06:08:11 51°14.528 2°54.891 331.7 13 329 11.3
2007-06-07 06:08:16 51°14.543 2°54.877 331 13.1 328 11.2
2007-06-07 06:08:21 51°14.558 2°54.862 330.8 13.1 329 11.3
2007-06-07 06:08:26 51°14.574 2°54.847 330.9 13 329 11.3
2007-06-07 06:08:31 51°14.589 2°54.832 331 13 330 11.4
2007-06-07 06:08:36 51°14.605 2°54.818 331.3 13 329 11.4
2007-06-07 06:08:41 51°14.62 2°54.803 331.2 13 328 11.5
2007-06-07 06:08:46 51°14.636 2°54.788 330.8 13.1 329 11.3
2007-06-07 06:08:51 51°14.651 2°54.772 330.3 13.1 329 11.3
2007-06-07 06:08:56 51°14.667 2°54.757 330.5 13 329 11.3
2007-06-07 06:09:01 51°14.682 2°54.742 330.1 13 328 11.4
2007-06-07 06:09:06 51°14.697 2°54.726 329.8 13.1 327 11.5
2007-06-07 06:09:11 51°14.713 2°54.71 329.2 13.1 327 11.3
2007-06-07 06:09:16 51°14.728 2°54.695 329.2 13 327 11.4
2007-06-07 06:09:21 51°14.743 2°54.679 329.2 13.1 327 11.4
2007-06-07 06:09:26 51°14.759 2°54.663 329.5 13.1 328 11.4
2007-06-07 06:09:31 51°14.774 2°54.648 329.6 13.1 327 11.4
2007-06-07 06:09:36 51°14.789 2°54.632 330.1 13.2 328 11.6
2007-06-07 06:09:41 51°14.804 2°54.616 330.3 13 327 11.3
2007-06-07 06:09:46 51°14.82 2°54.6 329.8 13 326 11.2
2007-06-07 06:09:51 51°14.834 2°54.583 328.7 13 324 11.5
2007-06-07 06:09:56 51°14.849 2°54.566 326.8 13 323 11.2
2007-06-07 06:10:01 51°14.863 2°54.549 325.3 13 323 11.4
2007-06-07 06:10:06 51°14.877 2°54.531 324.9 13 322 11.1
2007-06-07 06:10:11 51°14.891 2°54.513 323.7 13.1 321 11.4
2007-06-07 06:10:16 51°14.905 2°54.495 323.1 13 322 11.4
2007-06-07 06:10:21 51°14.919 2°54.477 323 12.9 321 11
2007-06-07 06:10:26 51°14.933 2°54.459 322.9 12.9 321 11
2007-06-07 06:10:31 51°14.947 2°54.441 322.8 12.9 319 11.1
2007-06-07 06:10:36 51°14.96 2°54.421 321.3 12.9 317 10.9
2007-06-07 06:10:41 51°14.973 2°54.402 319.7 12.9 315 10.5
2007-06-07 06:10:46 51°14.985 2°54.381 318.3 12.9 316 10.6
2007-06-07 06:10:51 51°14.998 2°54.361 317.4 12.8 314 10.4
2007-06-07 06:10:56 51°15.01 2°54.341 316.6 12.8 315 10.5
2007-06-07 06:11:01 51°15.022 2°54.32 316.2 12.9 312 10.3
2007-06-07 06:11:06 51°15.035 2°54.3 314.9 13 314 10.4
2007-06-07 06:11:11 51°15.047 2°54.279 315 13 313 10.5
2007-06-07 06:11:16 51°15.06 2°54.258 314.9 13 314 10.4
2007-06-07 06:11:21 51°15.072 2°54.237 315.2 13.1 313 10.5
2007-06-07 06:11:26 51°15.084 2°54.216 315.2 13 312 10.3
2007-06-07 06:11:31 51°15.096 2°54.195 314.9 12.9 311 10.4
2007-06-07 06:11:36 51°15.107 2°54.172 313.5 12.9 307 10.5
2007-06-07 06:11:41 51°15.117 2°54.149 310.6 12.9 306 10.5
2007-06-07 06:11:46 51°15.127 2°54.125 308.6 12.9 303 10.5
2007-06-07 06:11:51 51°15.136 2°54.101 306.6 12.9 301 10.6
2007-06-07 06:11:56 51°15.144 2°54.075 303.5 12.9 297 10.6
2007-06-07 06:12:01 51°15.152 2°54.05 300.7 12.9 295 10.9
2007-06-07 06:12:06 51°15.159 2°54.024 298.9 12.9 294 10.9
2007-06-07 06:12:11 51°15.165 2°53.997 296.4 12.9 289 10.9
2007-06-07 06:12:16 51°15.17 2°53.97 292.6 12.9 288 10.6
2007-06-07 06:12:21 51°15.174 2°53.942 289.8 12.8 284 10.6
2007-06-07 06:12:26 51°15.179 2°53.915 287 12.9 285 10.7
2007-06-07 06:12:31 51°15.183 2°53.887 286.5 13 284 11.1
2007-06-07 06:12:36 51°15.187 2°53.859 285.8 13 283 11.2
2007-06-07 06:12:41 51°15.191 2°53.831 284.9 12.9 282 11.2
2007-06-07 06:12:46 51°15.194 2°53.803 284.7 13 282 11.4
2007-06-07 06:12:51 51°15.197 2°53.775 284.2 12.9 281 11.2
2007-06-07 06:12:56 51°15.201 2°53.747 283.6 12.9 279 11.5
2007-06-07 06:13:01 51°15.205 2°53.719 282.2 12.9 284 11.4
2007-06-07 06:13:06 51°15.208 2°53.691 283.9 12.9 280 11.5
2007-06-07 06:13:11 51°15.211 2°53.663 283.5 13 283 11.6
2007-06-07 06:13:16 51°15.215 2°53.635 283.1 12.9 282 11.4
2007-06-07 06:13:21 51°15.219 2°53.607 284.1 12.9 284 11.5
2007-06-07 06:13:26 51°15.223 2°53.579 284 12.9 282 11.6
2007-06-07 06:13:31 51°15.227 2°53.551 284.7 12.9 282 11.5
2007-06-07 06:13:36 51°15.23 2°53.523 284.8 12.9 280 11.6
2007-06-07 06:13:41 51°15.235 2°53.496 283.4 12.8 283 11.6
2007-06-07 06:13:46 51°15.238 2°53.468 283.8 13 282 11.7
2007-06-07 06:13:51 51°15.242 2°53.44 284.4 12.9 284 11.7
2007-06-07 06:13:56 51°15.246 2°53.412 284.3 12.9 283 11.8
2007-06-07 06:14:01 51°15.25 2°53.384 284.1 12.9 283 11.8
2007-06-07 06:14:06 51°15.254 2°53.357 283.7 12.9 283 11.9
2007-06-07 06:14:11 51°15.257 2°53.328 284.6 12.9 281 11.7
2007-06-07 06:14:16 51°15.261 2°53.301 284.1 12.9 281 12
2007-06-07 06:14:21 51°15.265 2°53.273 283.3 12.9 283 11.7
2007-06-07 06:14:26 51°15.268 2°53.245 284.4 12.9 281 12
2007-06-07 06:14:31 51°15.273 2°53.217 284 12.9 283 12.1
2007-06-07 06:14:36 51°15.275 2°53.189 284.2 13 280 12.1
2007-06-07 06:14:41 51°15.28 2°53.161 283.2 12.9 283 12.1
2007-06-07 06:14:46 51°15.283 2°53.133 284.7 12.9 280 12.3
2007-06-07 06:14:51 51°15.288 2°53.106 284.2 12.9 284 12.1
2007-06-07 06:14:56 51°15.292 2°53.078 284.5 12.9 283 12
2007-06-07 06:15:01 51°15.296 2°53.05 285.2 12.9 282 12.1
2007-06-07 06:15:06 51°15.3 2°53.022 284.1 12.9 284 12.2
2007-06-07 06:15:11 51°15.304 2°52.994 285.5 12.9 283 12.3
2007-06-07 06:15:16 51°15.308 2°52.967 285.3 12.8 284 12.2
2007-06-07 06:15:21 51°15.311 2°52.939 285.1 12.9 280 12.3
2007-06-07 06:15:26 51°15.316 2°52.911 283.3 13 284 12.4
2007-06-07 06:15:31 51°15.318 2°52.883 284 12.8 279 12.4
2007-06-07 06:15:36 51°15.322 2°52.855 282.8 12.9 280 12.6
2007-06-07 06:15:41 51°15.325 2°52.827 282.3 12.9 282 12.6
2007-06-07 06:15:46 51°15.329 2°52.8 283.1 12.9 283 12.5
2007-06-07 06:15:51 51°15.332 2°52.771 283.7 12.9 278 12.2
2007-06-07 06:15:56 51°15.336 2°52.744 282.2 12.9 282 12.6
2007-06-07 06:16:01 51°15.339 2°52.716 283.5 12.9 281 12.6
2007-06-07 06:16:06 51°15.343 2°52.688 283 12.8 283 12.4
2007-06-07 06:16:11 51°15.346 2°52.66 283.6 12.7 279 12.7
2007-06-07 06:16:16 51°15.349 2°52.632 282.7 12.8 281 12.7
2007-06-07 06:16:21 51°15.352 2°52.604 282.1 12.7 279 12.8
2007-06-07 06:16:26 51°15.356 2°52.577 282.6 12.8 281 12.8
2007-06-07 06:16:31 51°15.358 2°52.549 282.9 12.8 277 12.8
2007-06-07 06:16:36 51°15.361 2°52.521 280.8 12.8 280 12.9
2007-06-07 06:16:41 51°15.363 2°52.493 280.5 12.7 278 13
2007-06-07 06:16:46 51°15.365 2°52.465 279.8 12.7 278 13
2007-06-07 06:16:51 51°15.367 2°52.437 279.6 12.8 276 13.2
2007-06-07 06:16:56 51°15.37 2°52.409 278.8 12.8 279 13.1
2007-06-07 06:17:01 51°15.372 2°52.381 279.1 12.9 274 13.4
2007-06-07 06:17:06 51°15.375 2°52.353 278.7 12.8 280 13.3
2007-06-07 06:17:11 51°15.377 2°52.325 279 12.7 277 13.2
2007-06-07 06:17:16 51°15.378 2°52.297 279.6 12.8 275 13.3
2007-06-07 06:17:21 51°15.381 2°52.269 278.4 12.8 279 13.5
2007-06-07 06:17:26 51°15.383 2°52.24 279.2 12.8 275 13.3
2007-06-07 06:17:31 51°15.385 2°52.212 278.8 12.9 279 13.3
2007-06-07 06:17:36 51°15.387 2°52.184 279.5 12.8 276 13.3
2007-06-07 06:17:41 51°15.39 2°52.156 278 12.8 278 13.4
2007-06-07 06:17:46 51°15.392 2°52.128 278.7 12.8 278 13.5
2007-06-07 06:17:51 51°15.394 2°52.1 279.7 12.8 278 13.6
2007-06-07 06:17:56 51°15.397 2°52.072 279.7 12.7 278 13.7
2007-06-07 06:18:01 51°15.399 2°52.044 279.5 12.8 277 13.5
2007-06-07 06:18:06 51°15.402 2°52.016 279.2 12.9 279 13.7
2007-06-07 06:18:11 51°15.404 2°51.988 279.7 13 277 13.6
2007-06-07 06:18:16 51°15.406 2°51.959 279.4 12.9 278 13.6
2007-06-07 06:18:21 51°15.409 2°51.931 279.7 12.8 276 13.8
2007-06-07 06:18:26 51°15.411 2°51.903 279.4 13 279 13.8
2007-06-07 06:18:31 51°15.414 2°51.875 279.8 12.9 280 13.6
2007-06-07 06:18:36 51°15.417 2°51.847 280.9 12.8 278 13.8
2007-06-07 06:18:41 51°15.42 2°51.819 280.1 12.8 279 13.8
2007-06-07 06:18:46 51°15.421 2°51.792 280.1 12.7 276 13.8
2007-06-07 06:18:51 51°15.424 2°51.764 279.3 12.7 277 14
2007-06-07 06:18:56 51°15.425 2°51.735 279.2 12.7 275 14
2007-06-07 06:19:01 51°15.427 2°51.708 278.2 12.7 272 13.8
2007-06-07 06:19:06 51°15.427 2°51.679 276.6 12.8 272 13.9
2007-06-07 06:19:11 51°15.428 2°51.651 274.6 12.7 273 13.9
2007-06-07 06:19:16 51°15.428 2°51.623 274.5 12.8 271 14.2
2007-06-07 06:19:21 51°15.429 2°51.594 274.2 12.8 270 14.1
2007-06-07 06:19:26 51°15.429 2°51.566 273.4 12.9 271 14.2
2007-06-07 06:19:31 51°15.429 2°51.537 273.4 12.9 270 14.1
2007-06-07 06:19:36 51°15.429 2°51.509 272.9 12.9 270 14.3
2007-06-07 06:19:41 51°15.43 2°51.481 272.2 12.8 271 14.1
2007-06-07 06:19:46 51°15.429 2°51.452 272.4 12.9 269 14.2
2007-06-07 06:19:51 51°15.43 2°51.424 271.9 12.9 272 14.3
2007-06-07 06:19:56 51°15.429 2°51.396 272.3 12.8 269 14.2
2007-06-07 06:20:01 51°15.431 2°51.368 271.5 12.7 272 14.3
2007-06-07 06:20:06 51°15.429 2°51.339 272.7 12.8 266 14.4
2007-06-07 06:20:11 51°15.429 2°51.311 271.2 12.9 270 14
2007-06-07 06:20:16 51°15.429 2°51.282 271 12.8 267 14
2007-06-07 06:20:21 51°15.429 2°51.254 270.9 12.8 271 14.2
2007-06-07 06:20:26 51°15.429 2°51.225 272.6 12.9 269 14.2
2007-06-07 06:20:31 51°15.429 2°51.197 271.5 12.8 271 14.2
2007-06-07 06:20:36 51°15.429 2°51.169 272.6 12.8 270 14.2
2007-06-07 06:20:41 51°15.429 2°51.14 272.4 12.8 270 14.3
2007-06-07 06:20:46 51°15.43 2°51.112 272.5 12.8 271 14.3
2007-06-07 06:20:51 51°15.429 2°51.084 273.1 12.9 269 14.5
2007-06-07 06:20:56 51°15.43 2°51.055 272.8 12.9 272 14.3
2007-06-07 06:21:01 51°15.429 2°51.027 273.1 12.9 266 14.2
2007-06-07 06:21:06 51°15.43 2°50.998 271.1 12.9 273 14.3
2007-06-07 06:21:11 51°15.43 2°50.97 273.1 12.9 268 14.3
2007-06-07 06:21:16 51°15.43 2°50.941 272.4 12.9 272 14.3
2007-06-07 06:21:21 51°15.43 2°50.913 272.9 12.8 269 14.4
2007-06-07 06:21:26 51°15.43 2°50.885 272.9 12.8 273 14.4
2007-06-07 06:21:31 51°15.43 2°50.857 273 12.8 268 14.4
2007-06-07 06:21:36 51°15.431 2°50.828 271.8 12.8 272 14.4
2007-06-07 06:21:41 51°15.429 2°50.8 272.4 12.9 267 14.3
2007-06-07 06:21:46 51°15.43 2°50.771 270.6 13 272 14.5
2007-06-07 06:21:51 51°15.43 2°50.743 271.2 12.9 270 14.3
2007-06-07 06:21:56 51°15.43 2°50.714 272.4 12.9 269 14.3
2007-06-07 06:22:01 51°15.43 2°50.686 271.4 12.9 271 14.4
2007-06-07 06:22:06 51°15.429 2°50.658 271.7 12.8 266 14.4
2007-06-07 06:22:11 51°15.429 2°50.629 270.1 12.9 270 14.5
2007-06-07 06:22:16 51°15.429 2°50.601 271.4 12.8 265 14.5
2007-06-07 06:22:21 51°15.429 2°50.572 270 12.9 271 14.4
2007-06-07 06:22:26 51°15.427 2°50.544 270.2 12.9 264 14.5
2007-06-07 06:22:31 51°15.427 2°50.516 268.4 12.7 269 14.4
2007-06-07 06:22:36 51°15.423 2°50.488 268.3 12.9 260 14.5
2007-06-07 06:22:41 51°15.423 2°50.459 265.9 12.8 268 14.6
2007-06-07 06:22:46 51°15.42 2°50.431 267.2 12.9 260 14.5
2007-06-07 06:22:51 51°15.419 2°50.403 265.5 12.9 266 14.3
2007-06-07 06:22:56 51°15.416 2°50.375 265.3 13 263 14.5
2007-06-07 06:23:01 51°15.415 2°50.346 265.3 12.8 266 14.5
2007-06-07 06:23:06 51°15.413 2°50.318 266.3 12.9 264 14.5
2007-06-07 06:23:11 51°15.413 2°50.289 267 13 269 14.6
2007-06-07 06:23:16 51°15.411 2°50.261 268.7 12.8 265 14.4
2007-06-07 06:23:21 51°15.41 2°50.233 268.6 12.8 267 14.5
2007-06-07 06:23:26 51°15.408 2°50.205 267.8 12.8 265 14.2
2007-06-07 06:23:31 51°15.407 2°50.177 267.8 12.9 265 14.3
2007-06-07 06:23:36 51°15.405 2°50.148 266.7 12.9 266 14.4
2007-06-07 06:23:41 51°15.405 2°50.12 267.9 12.8 263 14.5
2007-06-07 06:23:46 51°15.403 2°50.091 267.4 13 266 14.4
2007-06-07 06:23:51 51°15.402 2°50.063 268.2 13 266 14.5
2007-06-07 06:23:56 51°15.401 2°50.034 268.2 13 267 14.7
2007-06-07 06:24:01 51°15.4 2°50.005 268.3 12.9 268 14.4
2007-06-07 06:24:06 51°15.399 2°49.977 269.3 13 267 14.3
2007-06-07 06:24:11 51°15.398 2°49.948 268.2 13 268 14.4
2007-06-07 06:24:16 51°15.397 2°49.92 269.4 12.9 266 14.3
2007-06-07 06:24:21 51°15.396 2°49.891 268.5 13 268 14.5
2007-06-07 06:24:26 51°15.395 2°49.862 268.3 13 267 14.4
2007-06-07 06:24:31 51°15.395 2°49.834 269.3 12.9 268 14.4
2007-06-07 06:24:36 51°15.394 2°49.805 269.6 12.9 267 14.6
2007-06-07 06:24:41 51°15.393 2°49.777 269.7 12.8 268 14.6
2007-06-07 06:24:46 51°15.391 2°49.748 269.6 13 264 14.5
2007-06-07 06:24:51 51°15.392 2°49.72 268.5 12.7 268 14.6
2007-06-07 06:24:56 51°15.389 2°49.692 269.1 12.8 263 14.7
2007-06-07 06:25:01 51°15.39 2°49.663 267.6 12.8 269 14.6
2007-06-07 06:25:06 51°15.387 2°49.635 269.1 13 262 14.6
2007-06-07 06:25:11 51°15.387 2°49.606 267.8 12.9 271 14.6
2007-06-07 06:25:16 51°15.385 2°49.578 269.4 12.8 266 14.6
2007-06-07 06:25:21 51°15.386 2°49.55 269.8 12.8 268 14.5
2007-06-07 06:25:26 51°15.384 2°49.521 270.1 12.8 267 14.6
2007-06-07 06:25:31 51°15.384 2°49.493 270.5 12.8 267 14.5
2007-06-07 06:25:36 51°15.382 2°49.465 269.2 12.8 266 14.6
2007-06-07 06:25:41 51°15.382 2°49.437 269.2 12.8 266 14.5
2007-06-07 06:25:46 51°15.38 2°49.408 268.9 12.9 266 14.5
2007-06-07 06:25:51 51°15.38 2°49.38 269 12.8 269 14.6
2007-06-07 06:25:56 51°15.378 2°49.352 270.1 12.9 264 14.6
2007-06-07 06:26:01 51°15.378 2°49.323 267.8 12.9 269 14.6
2007-06-07 06:26:06 51°15.376 2°49.294 269.2 13 264 14.7
2007-06-07 06:26:11 51°15.376 2°49.266 268.5 13 269 14.7
2007-06-07 06:26:16 51°15.374 2°49.237 270.3 13 265 14.8
2007-06-07 06:26:21 51°15.373 2°49.208 269.5 12.9 268 14.7
2007-06-07 06:26:26 51°15.372 2°49.18 269.2 13.1 264 14.8
2007-06-07 06:26:31 51°15.371 2°49.151 269.2 13 269 14.7
2007-06-07 06:26:36 51°15.37 2°49.122 270.7 13 262 14.7
2007-06-07 06:26:41 51°15.37 2°49.094 268.4 13 272 14.6
2007-06-07 06:26:46 51°15.368 2°49.065 270.7 12.9 264 14.6
2007-06-07 06:26:51 51°15.367 2°49.037 269.4 13 269 14.6
2007-06-07 06:26:56 51°15.367 2°49.008 269.6 12.9 266 14.6
2007-06-07 06:27:01 51°15.364 2°48.98 269.6 12.9 265 14.5
2007-06-07 06:27:06 51°15.364 2°48.951 268 12.9 268 14.7
2007-06-07 06:27:11 51°15.363 2°48.923 269.7 13 267 14.7
2007-06-07 06:27:16 51°15.362 2°48.894 270.4 12.9 268 14.7
2007-06-07 06:27:21 51°15.362 2°48.866 270.3 13 267 14.5
2007-06-07 06:27:26 51°15.36 2°48.837 270.2 13.1 266 14.4
2007-06-07 06:27:31 51°15.36 2°48.808 269.7 13 269 14.4
2007-06-07 06:27:36 51°15.359 2°48.779 270 13 266 14.3
2007-06-07 06:27:41 51°15.358 2°48.75 269.6 13.2 269 14.3
2007-06-07 06:27:46 51°15.357 2°48.721 270 13.1 267 14.1
2007-06-07 06:27:51 51°15.357 2°48.693 270 13 268 13.9
2007-06-07 06:27:56 51°15.356 2°48.663 270.1 13.1 267 13.8
2007-06-07 06:28:01 51°15.356 2°48.634 269.9 13.1 269 13.7
2007-06-07 06:28:06 51°15.355 2°48.606 271.2 12.9 267 13.6
2007-06-07 06:28:11 51°15.354 2°48.577 270.5 13 266 13.4
2007-06-07 06:28:16 51°15.354 2°48.548 269.1 13.1 270 13.3
2007-06-07 06:28:21 51°15.352 2°48.519 270.8 12.9 266 13.1
2007-06-07 06:28:26 51°15.352 2°48.491 270.1 12.9 268 13
2007-06-07 06:28:31 51°15.35 2°48.462 269.1 12.9 267 12.9
2007-06-07 06:28:36 51°15.35 2°48.434 269.2 12.9 268 12.7
2007-06-07 06:28:41 51°15.348 2°48.405 269.5 13 269 12.6
2007-06-07 06:28:46 51°15.348 2°48.377 269.2 12.9 264 12.4
2007-06-07 06:28:51 51°15.347 2°48.348 268.2 12.9 267 12.1
2007-06-07 06:28:56 51°15.346 2°48.32 268.9 12.9 265 12.1
2007-06-07 06:29:01 51°15.344 2°48.291 269.1 13 267 11.9
2007-06-07 06:29:06 51°15.345 2°48.263 267.2 12.9 271 11.9
2007-06-07 06:29:11 51°15.342 2°48.234 270.7 13 266 11.9
2007-06-07 06:29:16 51°15.343 2°48.205 269.4 13 268 11.8
2007-06-07 06:29:21 51°15.341 2°48.177 269.5 12.9 266 12
2007-06-07 06:29:26 51°15.341 2°48.148 268.9 12.9 270 11.8
2007-06-07 06:29:31 51°15.339 2°48.12 270 13 265 11.7
2007-06-07 06:29:36 51°15.339 2°48.09 269 13.1 267 11.6
2007-06-07 06:29:41 51°15.338 2°48.062 269.4 13 268 11.6
2007-06-07 06:29:46 51°15.336 2°48.033 269.8 13.1 264 11.5
2007-06-07 06:29:51 51°15.337 2°48.004 267.6 13.1 272 11.5
2007-06-07 06:29:56 51°15.335 2°47.976 270.9 12.9 265 11.5
2007-06-07 06:30:01 51°15.334 2°47.948 270 12.9 265 11.6
2007-06-07 06:30:06 51°15.333 2°47.919 268 13.2 267 11.6
2007-06-07 06:30:11 51°15.333 2°47.89 269.2 12.9 268 11.3
2007-06-07 06:30:16 51°15.33 2°47.861 269.4 13 265 11.4
2007-06-07 06:30:21 51°15.331 2°47.832 268.3 13 269 11.5
2007-06-07 06:30:26 51°15.329 2°47.804 269.7 13 265 11.5
2007-06-07 06:30:31 51°15.329 2°47.775 269.1 13 269 11.6
2007-06-07 06:30:36 51°15.328 2°47.747 269.8 12.9 266 11.5
2007-06-07 06:30:41 51°15.327 2°47.719 269.7 12.8 266 11.5
2007-06-07 06:30:46 51°15.325 2°47.69 268.8 12.9 267 11.7
2007-06-07 06:30:51 51°15.325 2°47.662 269.1 12.9 268 11.6
2007-06-07 06:30:56 51°15.323 2°47.633 269.2 13 266 11.6
2007-06-07 06:31:01 51°15.323 2°47.604 268.6 13.1 266 11.8
2007-06-07 06:31:06 51°15.321 2°47.575 268.9 13.1 267 11.6
2007-06-07 06:31:11 51°15.32 2°47.546 269.2 13.1 263 11.5
2007-06-07 06:31:16 51°15.319 2°47.517 268.3 13.1 270 11.7
2007-06-07 06:31:21 51°15.317 2°47.489 270.1 13.2 263 11.6
2007-06-07 06:31:26 51°15.317 2°47.459 267.6 13.2 270 11.7
2007-06-07 06:31:31 51°15.317 2°47.43 269.6 13.1 267 11.9
2007-06-07 06:31:36 51°15.315 2°47.401 270.6 13.1 269 11.8
2007-06-07 06:31:41 51°15.315 2°47.373 269.3 13.1 266 11.7
2007-06-07 06:31:46 51°15.313 2°47.344 269.5 13.1 266 11.9
2007-06-07 06:31:51 51°15.313 2°47.315 269 13.2 267 12.1
2007-06-07 06:31:56 51°15.312 2°47.286 269.6 13 268 12.1
2007-06-07 06:32:01 51°15.31 2°47.257 269.9 13 266 12.3
2007-06-07 06:32:06 51°15.31 2°47.228 269.1 13 268 12.3
2007-06-07 06:32:11 51°15.309 2°47.2 269.8 13 268 12.6
2007-06-07 06:32:16 51°15.308 2°47.171 270 13 266 12.6
2007-06-07 06:32:21 51°15.307 2°47.142 269.3 13.1 267 12.8
2007-06-07 06:32:26 51°15.306 2°47.113 269.9 13.1 266 12.8
2007-06-07 06:32:31 51°15.306 2°47.084 268.9 13.1 269 12.7
2007-06-07 06:32:36 51°15.304 2°47.055 269.5 13.2 268 12.7
2007-06-07 06:32:41 51°15.303 2°47.026 269.3 13.1 267 12.8
2007-06-07 06:32:46 51°15.302 2°46.997 269.2 13.2 266 13
2007-06-07 06:32:51 51°15.301 2°46.968 269.1 13.3 268 13
2007-06-07 06:32:56 51°15.3 2°46.938 269.8 13.3 266 13.2
2007-06-07 06:33:01 51°15.299 2°46.909 268.6 13.4 268 13.2
2007-06-07 06:33:06 51°15.298 2°46.879 269.2 13.5 267 13.3
2007-06-07 06:33:11 51°15.298 2°46.849 269 13.4 269 13.4
2007-06-07 06:33:16 51°15.297 2°46.82 270.4 13.2 270 13.6
2007-06-07 06:33:21 51°15.296 2°46.791 271.4 13.2 266 13.4
2007-06-07 06:33:26 51°15.296 2°46.762 269.7 13.2 269 13.7
2007-06-07 06:33:31 51°15.295 2°46.733 270.3 13.1 266 13.9
2007-06-07 06:33:36 51°15.293 2°46.704 270 13.3 265 13.7
2007-06-07 06:33:41 51°15.293 2°46.675 268.5 13.1 269 13.9
2007-06-07 06:33:46 51°15.291 2°46.646 269.5 13.3 263 14
2007-06-07 06:33:51 51°15.291 2°46.617 267.7 13.2 272 14.2
2007-06-07 06:33:56 51°15.289 2°46.588 270.1 13.1 263 14.3
2007-06-07 06:34:01 51°15.289 2°46.559 268.6 13.1 270 14.4
2007-06-07 06:34:06 51°15.288 2°46.53 269.5 12.9 267 14.7
2007-06-07 06:34:11 51°15.287 2°46.502 270 13 267 14.6
2007-06-07 06:34:16 51°15.286 2°46.473 269.4 13 266 14.7
2007-06-07 06:34:21 51°15.285 2°46.444 269.2 13 268 14.9
2007-06-07 06:34:26 51°15.285 2°46.416 268.8 12.9 268 15.1
2007-06-07 06:34:31 51°15.283 2°46.387 269.2 13 266 15.3
2007-06-07 06:34:36 51°15.283 2°46.358 268.7 13 270 15.2
2007-06-07 06:34:41 51°15.281 2°46.33 270.1 13 267 15.3
2007-06-07 06:34:46 51°15.281 2°46.301 269.2 13 268 15.4
2007-06-07 06:34:51 51°15.28 2°46.273 268.6 13 267 15.3
2007-06-07 06:34:56 51°15.279 2°46.244 269.7 12.9 267 15.6
2007-06-07 06:35:01 51°15.278 2°46.215 268.8 13.2 269 15.6
2007-06-07 06:35:06 51°15.278 2°46.186 270 13 268 15.7
2007-06-07 06:35:11 51°15.277 2°46.157 270.4 13.1 267 15.8
2007-06-07 06:35:16 51°15.277 2°46.128 269.5 13.1 270 15.9
2007-06-07 06:35:21 51°15.275 2°46.099 270.2 13.1 265 15.9
2007-06-07 06:35:26 51°15.275 2°46.071 269 12.9 270 16.1
2007-06-07 06:35:31 51°15.274 2°46.042 270.1 12.9 265 16.1
2007-06-07 06:35:36 51°15.273 2°46.014 269 13 269 16.3
2007-06-07 06:35:41 51°15.272 2°45.985 269.4 13 267 16.2
2007-06-07 06:35:46 51°15.27 2°45.957 269.8 12.8 265 16.3
2007-06-07 06:35:51 51°15.269 2°45.928 268.5 13.1 264 16.5
2007-06-07 06:35:56 51°15.269 2°45.899 266.9 13.1 274 16.7
2007-06-07 06:36:01 51°15.268 2°45.87 271.2 13 264 16.6
2007-06-07 06:36:06 51°15.267 2°45.841 269.3 13.2 268 16.7
2007-06-07 06:36:11 51°15.267 2°45.813 268.9 13 269 16.9
2007-06-07 06:36:16 51°15.266 2°45.784 271 12.9 266 17
2007-06-07 06:36:21 51°15.265 2°45.756 268.9 12.9 267 17.1
2007-06-07 06:36:26 51°15.265 2°45.727 268.8 12.9 269 17.2
2007-06-07 06:36:31 51°15.263 2°45.699 270.3 12.8 264 17.1
2007-06-07 06:36:36 51°15.263 2°45.671 267.6 12.9 269 17.3
2007-06-07 06:36:41 51°15.261 2°45.642 269.2 12.8 264 17.3
2007-06-07 06:36:46 51°15.26 2°45.614 268.7 12.8 267 17.3
2007-06-07 06:36:51 51°15.259 2°45.585 267.8 13 266 17.4
2007-06-07 06:36:56 51°15.259 2°45.557 268.5 12.9 270 17.3
2007-06-07 06:37:01 51°15.258 2°45.529 269.8 12.8 265 17.5
2007-06-07 06:37:06 51°15.257 2°45.5 268.3 13 267 17.6
2007-06-07 06:37:11 51°15.256 2°45.471 268.2 13.1 268 17.7
2007-06-07 06:37:16 51°15.255 2°45.442 269.4 13 267 17.8
2007-06-07 06:37:21 51°15.254 2°45.413 269 13.2 267 17.8
2007-06-07 06:37:26 51°15.253 2°45.384 268.5 13.1 269 17.8
2007-06-07 06:37:31 51°15.252 2°45.356 269 13 266 17.8
2007-06-07 06:37:36 51°15.252 2°45.327 268.3 13.1 270 17.9
2007-06-07 06:37:41 51°15.251 2°45.298 269.9 13.1 268 18
2007-06-07 06:37:46 51°15.251 2°45.269 270 13 269 18.2
2007-06-07 06:37:51 51°15.251 2°45.24 270 13.1 270 18.2
2007-06-07 06:37:56 51°15.25 2°45.211 271 13.2 268 18.2
2007-06-07 06:38:01 51°15.25 2°45.181 270.7 13.1 269 18.4
2007-06-07 06:38:06 51°15.25 2°45.152 270.3 13.1 270 18.4
2007-06-07 06:38:11 51°15.249 2°45.124 270.8 13.1 268 18.5
2007-06-07 06:38:16 51°15.249 2°45.094 269.6 13.2 268 18.6
2007-06-07 06:38:21 51°15.249 2°45.065 269.4 13.2 269 18.7
2007-06-07 06:38:26 51°15.248 2°45.036 270.3 13.1 269 18.8
2007-06-07 06:38:31 51°15.248 2°45.007 270.5 13.1 267 19.1
2007-06-07 06:38:36 51°15.248 2°44.978 269.6 13.1 271 19.3
2007-06-07 06:38:41 51°15.246 2°44.949 271 13 264 19.3
2007-06-07 06:38:46 51°15.246 2°44.921 269 13 269 19.4
2007-06-07 06:38:51 51°15.244 2°44.892 269.8 13 263 19.4
2007-06-07 06:38:56 51°15.243 2°44.863 267.6 13.1 268 19.5
2007-06-07 06:39:01 51°15.241 2°44.835 268.1 13 267 19.6
2007-06-07 06:39:06 51°15.241 2°44.806 269.5 13 267 19.5
2007-06-07 06:39:11 51°15.24 2°44.777 269.4 13 266 19.7
2007-06-07 06:39:16 51°15.239 2°44.748 269.5 13 268 19.6
2007-06-07 06:39:21 51°15.238 2°44.72 269.7 13 266 19.7
2007-06-07 06:39:26 51°15.237 2°44.691 269.2 13 268 19.7
2007-06-07 06:39:31 51°15.236 2°44.662 269.7 13 266 19.7
2007-06-07 06:39:36 51°15.236 2°44.634 269.2 13 267 19.7
2007-06-07 06:39:41 51°15.234 2°44.605 269.1 13 264 19.7
2007-06-07 06:39:46 51°15.233 2°44.576 267.5 13 268 19.6
2007-06-07 06:39:51 51°15.232 2°44.548 269.1 12.8 266 19.5
2007-06-07 06:39:56 51°15.231 2°44.519 268.8 12.8 266 19.7
2007-06-07 06:40:01 51°15.23 2°44.491 268.5 12.9 269 19.5
2007-06-07 06:40:06 51°15.229 2°44.462 270.4 13 265 19.3
2007-06-07 06:40:11 51°15.229 2°44.434 268.7 12.9 270 19.2
2007-06-07 06:40:16 51°15.227 2°44.405 270.2 13 264 19.3
2007-06-07 06:40:21 51°15.227 2°44.376 268.5 13.2 271 19.2
2007-06-07 06:40:26 51°15.227 2°44.347 270.3 13 270 19
2007-06-07 06:40:31 51°15.226 2°44.319 271.4 12.8 268 18.9
2007-06-07 06:40:36 51°15.226 2°44.29 270.1 13.1 268 18.8
2007-06-07 06:40:41 51°15.225 2°44.261 270 13.1 268 18.6
2007-06-07 06:40:46 51°15.224 2°44.232 269.9 13 267 18.4
2007-06-07 06:40:51 51°15.222 2°44.204 268.3 13.1 267 18.3
2007-06-07 06:40:56 51°15.223 2°44.174 269.3 13 269 18.2
2007-06-07 06:41:01 51°15.222 2°44.146 270.7 12.9 266 18
2007-06-07 06:41:06 51°15.22 2°44.117 269.4 13 266 17.8
2007-06-07 06:41:11 51°15.22 2°44.088 269 13.1 270 17.6
2007-06-07 06:41:16 51°15.219 2°44.06 270.1 13 268 17.5
2007-06-07 06:41:21 51°15.218 2°44.031 269.3 13 264 17.4
2007-06-07 06:41:26 51°15.217 2°44.002 268.3 13.3 268 17.2
2007-06-07 06:41:31 51°15.216 2°43.973 269.9 13 268 16.8
2007-06-07 06:41:36 51°15.215 2°43.944 270.8 13 265 16.9
2007-06-07 06:41:41 51°15.214 2°43.916 267.5 13.2 274 16.5
2007-06-07 06:41:46 51°15.215 2°43.887 271.4 13 269 16.2
2007-06-07 06:41:51 51°15.213 2°43.858 270.3 12.9 267 16
2007-06-07 06:41:56 51°15.212 2°43.83 269.7 13.1 265 15.9
2007-06-07 06:42:01 51°15.211 2°43.801 268.6 13.2 269 15.7
2007-06-07 06:42:06 51°15.211 2°43.772 268.5 13.1 267 15.4
2007-06-07 06:42:11 51°15.21 2°43.743 269.3 13 269 15.4
2007-06-07 06:42:16 51°15.209 2°43.715 270.3 13 265 15.3
2007-06-07 06:42:21 51°15.208 2°43.685 268 13.4 271 15.3
2007-06-07 06:42:26 51°15.207 2°43.656 268.8 13.2 265 15
2007-06-07 06:42:31 51°15.207 2°43.627 268.7 13 270 14.9
2007-06-07 06:42:36 51°15.205 2°43.598 269.7 13.3 266 15
2007-06-07 06:42:41 51°15.205 2°43.569 269.3 13.2 270 14.6
2007-06-07 06:42:46 51°15.205 2°43.539 269.9 13.1 268 13.6
2007-06-07 06:42:51 51°15.204 2°43.511 270.1 13.1 273 13.5
2007-06-07 06:42:56 51°15.204 2°43.482 272.1 13.1 266 14.2
2007-06-07 06:43:01 51°15.203 2°43.453 270.1 13.2 270 14.2
2007-06-07 06:43:06 51°15.203 2°43.424 270.1 13.1 268 14.4
2007-06-07 06:43:11 51°15.202 2°43.394 269.2 13.2 270 14.5
2007-06-07 06:43:16 51°15.203 2°43.366 270 13 269 14.6
2007-06-07 06:43:21 51°15.2 2°43.337 271.1 13 268 14.5
2007-06-07 06:43:26 51°15.202 2°43.308 269.2 13 272 14.4
2007-06-07 06:43:31 51°15.2 2°43.28 270.7 13 266 14.5
2007-06-07 06:43:36 51°15.2 2°43.251 269.7 13 266 14.5
2007-06-07 06:43:41 51°15.199 2°43.222 268.5 13 269 14.6
2007-06-07 06:43:46 51°15.197 2°43.193 269.3 13 266 14.7
2007-06-07 06:43:51 51°15.197 2°43.165 268.4 12.8 269 14.8
2007-06-07 06:43:57 51°15.195 2°43.131 269 13.1 264 14.8
2007-06-07 06:44:01 51°15.195 2°43.108 268.1 13 271 14.9
2007-06-07 06:44:06 51°15.193 2°43.079 269.4 13 263 14.9
2007-06-07 06:44:11 51°15.194 2°43.05 267.5 12.9 271 15.1
2007-06-07 06:44:16 51°15.192 2°43.022 269.6 12.9 265 15.2
2007-06-07 06:44:21 51°15.192 2°42.993 268.6 13.1 270 15
2007-06-07 06:44:26 51°15.192 2°42.965 269.2 12.8 271 15
2007-06-07 06:44:31 51°15.192 2°42.936 272.1 12.9 270 15.1
2007-06-07 06:44:36 51°15.194 2°42.907 271.7 13 279 15.2
2007-06-07 06:44:41 51°15.197 2°42.879 276.7 12.9 276 15
2007-06-07 06:44:46 51°15.199 2°42.85 278.8 13 280 15.1
2007-06-07 06:44:51 51°15.202 2°42.822 278.9 13.1 279 15
2007-06-07 06:44:56 51°15.205 2°42.794 280.1 13 284 15.1
2007-06-07 06:45:01 51°15.21 2°42.766 283.5 13 283 14.8
2007-06-07 06:45:06 51°15.215 2°42.738 285.4 13 287 15.2
2007-06-07 06:45:11 51°15.22 2°42.71 288 13.2 286 14.7
2007-06-07 06:45:16 51°15.227 2°42.683 288.6 13.2 292 14.4
2007-06-07 06:45:21 51°15.234 2°42.656 291.9 13.2 291 13.7
2007-06-07 06:45:26 51°15.242 2°42.63 293.1 13.2 296 13.1
2007-06-07 06:45:31 51°15.248 2°42.603 295.8 13.1 291 13.7
2007-06-07 06:45:36 51°15.256 2°42.577 295.4 13.1 295 14.2
2007-06-07 06:45:41 51°15.263 2°42.55 296.1 13.1 293 14.3
2007-06-07 06:45:46 51°15.271 2°42.524 296.1 13.1 295 14.5
2007-06-07 06:45:51 51°15.278 2°42.496 295.9 13.3 293 14.3
2007-06-07 06:45:56 51°15.286 2°42.47 295.7 13.2 296 14.2
2007-06-07 06:46:01 51°15.294 2°42.443 297.4 13.1 293 13.9
2007-06-07 06:46:06 51°15.302 2°42.417 296.8 13.2 296 13.7
2007-06-07 06:46:11 51°15.309 2°42.39 297.1 13.2 293 13.5
2007-06-07 06:46:16 51°15.317 2°42.364 296.8 13.2 297 13.3
2007-06-07 06:46:21 51°15.324 2°42.337 297.5 13.2 293 12.8
2007-06-07 06:46:26 51°15.331 2°42.31 297 13.3 295 12.3
2007-06-07 06:46:31 51°15.339 2°42.284 296.4 13.1 296 12.1
2007-06-07 06:46:36 51°15.347 2°42.258 297.2 13.1 295 11.6
2007-06-07 06:46:41 51°15.355 2°42.232 297.2 13.1 296 10.7
2007-06-07 06:46:46 51°15.363 2°42.205 297.8 13.1 295 11.1
2007-06-07 06:46:51 51°15.37 2°42.179 297.4 13.2 295 12.3
2007-06-07 06:46:56 51°15.378 2°42.152 297.3 13.2 293 12.3
2007-06-07 06:47:01 51°15.386 2°42.126 296.8 13.2 294 11.9
2007-06-07 06:47:06 51°15.393 2°42.099 296.4 13.2 295 12
2007-06-07 06:47:11 51°15.4 2°42.072 296.5 13.2 293 12
2007-06-07 06:47:16 51°15.408 2°42.045 296.2 13.3 294 11.9
2007-06-07 06:47:21 51°15.415 2°42.018 296 13.2 294 11.6
2007-06-07 06:47:26 51°15.422 2°41.992 296.2 13.1 293 11.5
2007-06-07 06:47:31 51°15.43 2°41.965 295.5 13.3 295 11.6
2007-06-07 06:47:36 51°15.438 2°41.938 296.1 13.2 295 11.7
2007-06-07 06:47:41 51°15.446 2°41.912 296.8 13.2 296 11.5
2007-06-07 06:47:46 51°15.453 2°41.886 297.1 13.1 293 11.3
2007-06-07 06:47:51 51°15.461 2°41.859 296.2 13.2 296 11.6
2007-06-07 06:47:56 51°15.468 2°41.832 296.1 13.2 294 11.6
2007-06-07 06:48:01 51°15.476 2°41.806 296.3 13.1 294 11.6
2007-06-07 06:48:06 51°15.483 2°41.779 296.1 13.2 294 11.7
2007-06-07 06:48:11 51°15.491 2°41.753 295.9 13.3 296 11.9
2007-06-07 06:48:16 51°15.498 2°41.726 296.2 13.4 294 11.9
2007-06-07 06:48:21 51°15.506 2°41.699 296.8 13.3 294 11.5
2007-06-07 06:48:26 51°15.514 2°41.672 295.7 13.3 294 11.9
2007-06-07 06:48:31 51°15.521 2°41.645 296.1 13.3 293 11.7
2007-06-07 06:48:36 51°15.53 2°41.619 295.5 13.3 297 12
2007-06-07 06:48:41 51°15.537 2°41.592 296.5 13.3 295 11.7
2007-06-07 06:48:46 51°15.544 2°41.565 296.8 13.3 293 11.8
2007-06-07 06:48:51 51°15.552 2°41.538 295.2 13.4 294 12
2007-06-07 06:48:56 51°15.56 2°41.511 296 13.3 293 12
2007-06-07 06:49:01 51°15.567 2°41.484 295.5 13.4 295 12
2007-06-07 06:49:06 51°15.574 2°41.457 295.9 13.4 294 11.9
2007-06-07 06:49:11 51°15.582 2°41.43 295.5 13.3 292 11.9
2007-06-07 06:49:16 51°15.589 2°41.402 295.4 13.4 294 12.2
2007-06-07 06:49:21 51°15.597 2°41.376 296.1 13.4 293 12
2007-06-07 06:49:26 51°15.605 2°41.349 295.5 13.4 296 12
2007-06-07 06:49:31 51°15.614 2°41.323 297.2 13.4 298 12.2
2007-06-07 06:49:36 51°15.624 2°41.298 299.4 13.4 304 12.3
2007-06-07 06:49:41 51°15.635 2°41.274 304 13.4 304 12.8
2007-06-07 06:49:46 51°15.645 2°41.249 306.3 13.4 305 12.7
2007-06-07 06:49:51 51°15.656 2°41.226 306.4 13.4 307 12.3
2007-06-07 06:49:56 51°15.666 2°41.202 307.9 13.4 307 12.9
2007-06-07 06:50:01 51°15.678 2°41.178 308.1 13.3 306 12.8
2007-06-07 06:50:06 51°15.689 2°41.154 308.2 13.4 307 13
2007-06-07 06:50:11 51°15.7 2°41.131 308.8 13.4 308 13
2007-06-07 06:50:16 51°15.713 2°41.11 310.1 13.4 316 13.3
2007-06-07 06:50:21 51°15.726 2°41.089 314.2 13.4 315 13.3
2007-06-07 06:50:26 51°15.74 2°41.07 316.8 13.3 319 13.2
2007-06-07 06:50:31 51°15.754 2°41.05 319.8 13.4 319 14.2
2007-06-07 06:50:37 51°15.771 2°41.028 321.2 13.3 322 14
2007-06-07 06:50:41 51°15.783 2°41.013 322.6 13.4 321 14.2
2007-06-07 06:50:46 51°15.798 2°40.995 323.8 13.4 323 14.4
2007-06-07 06:50:51 51°15.813 2°40.978 325 13.4 326 14.8
2007-06-07 06:50:56 51°15.828 2°40.963 328 13.3 329 15.2
2007-06-07 06:51:01 51°15.844 2°40.948 331.5 13.4 329 15.2
2007-06-07 06:51:06 51°15.861 2°40.934 332.1 13.4 332 15.6
2007-06-07 06:51:11 51°15.877 2°40.92 333.8 13.4 332 15.7
2007-06-07 06:51:16 51°15.894 2°40.907 335.3 13.4 334 15.9
2007-06-07 06:51:21 51°15.91 2°40.893 335.8 13.4 333 16.5
2007-06-07 06:51:26 51°15.927 2°40.88 336.3 13.5 334 16.8
2007-06-07 06:51:31 51°15.944 2°40.867 337.5 13.6 334 17.2
2007-06-07 06:51:36 51°15.961 2°40.854 337.2 13.6 335 17.4
2007-06-07 06:51:41 51°15.978 2°40.841 337.2 13.5 335 17.7
2007-06-07 06:51:46 51°15.995 2°40.828 337.5 13.6 334 18
2007-06-07 06:51:51 51°16.012 2°40.815 337.2 13.6 335 18.3
2007-06-07 06:51:56 51°16.029 2°40.802 337.5 13.5 334 18.6
2007-06-07 06:52:01 51°16.045 2°40.789 337.6 13.6 333 19.2
2007-06-07 06:52:06 51°16.062 2°40.774 336.7 13.6 331 19.1
2007-06-07 06:52:11 51°16.078 2°40.76 334.6 13.5 332 19.2
2007-06-07 06:52:16 51°16.094 2°40.746 333.8 13.5 330 19.4
2007-06-07 06:52:21 51°16.111 2°40.731 332.8 13.4 330 19.8
2007-06-07 06:52:26 51°16.127 2°40.716 332.4 13.5 330 20.1
2007-06-07 06:52:31 51°16.143 2°40.701 331.8 13.4 329 20.2
2007-06-07 06:52:37 51°16.162 2°40.682 331.4 13.5 328 20.6
2007-06-07 06:52:41 51°16.174 2°40.67 331.1 13.5 329 20.7
2007-06-07 06:52:46 51°16.19 2°40.654 331 13.5 328 20.7
2007-06-07 06:52:51 51°16.206 2°40.638 330.5 13.5 328 20.8
2007-06-07 06:52:56 51°16.222 2°40.623 330.7 13.4 329 20.8
2007-06-07 06:53:01 51°16.238 2°40.608 330.9 13.4 329 20.9
2007-06-07 06:53:06 51°16.254 2°40.593 330.9 13.5 329 21.1
2007-06-07 06:53:11 51°16.27 2°40.577 331.5 13.5 329 21.1
2007-06-07 06:53:16 51°16.286 2°40.562 331.4 13.4 328 21.3
2007-06-07 06:53:21 51°16.301 2°40.547 330.9 13.3 328 21.7
2007-06-07 06:53:26 51°16.317 2°40.53 330.7 13.2 325 21.6
2007-06-07 06:53:31 51°16.332 2°40.513 328.7 13.2 324 22
2007-06-07 06:53:36 51°16.347 2°40.496 328 13.3 325 22.2
2007-06-07 06:53:41 51°16.361 2°40.478 327 13.1 322 22.1
2007-06-07 06:53:46 51°16.376 2°40.461 325.8 13.2 324 22.6
2007-06-07 06:53:51 51°16.39 2°40.443 326 13.2 321 22.5
2007-06-07 06:53:56 51°16.404 2°40.425 324.4 13.1 323 22.7
2007-06-07 06:54:01 51°16.419 2°40.407 325.1 13.1 321 23
2007-06-07 06:54:06 51°16.433 2°40.39 324.7 13.1 322 22.7
2007-06-07 06:54:11 51°16.448 2°40.372 324.9 13.1 323 23
2007-06-07 06:54:16 51°16.462 2°40.354 325.3 13.2 323 22.9
2007-06-07 06:54:21 51°16.476 2°40.336 324.5 13.1 323 22.7
2007-06-07 06:54:26 51°16.491 2°40.319 324.6 13.2 322 22.8
2007-06-07 06:54:31 51°16.505 2°40.301 324.5 13.2 323 23
2007-06-07 06:54:36 51°16.52 2°40.283 325.1 13.1 321 22.7
2007-06-07 06:54:41 51°16.534 2°40.265 324.6 13 323 23
2007-06-07 06:54:46 51°16.548 2°40.248 324.9 13 322 22.8
2007-06-07 06:54:51 51°16.563 2°40.23 325 13.1 322 22.8
2007-06-07 06:54:56 51°16.577 2°40.212 324.7 13.2 321 22.7
2007-06-07 06:55:01 51°16.592 2°40.194 324.3 13.1 323 22.6
2007-06-07 06:55:06 51°16.606 2°40.176 324.3 13.1 321 22.6
2007-06-07 06:55:11 51°16.62 2°40.158 324.3 13.2 321 22.6
2007-06-07 06:55:16 51°16.634 2°40.14 323.8 13.2 322 22.4
2007-06-07 06:55:21 51°16.649 2°40.122 324.2 13.2 321 22.1
2007-06-07 06:55:26 51°16.663 2°40.103 323.8 13.2 322 22.1
2007-06-07 06:55:31 51°16.677 2°40.086 324.3 13.2 322 22
2007-06-07 06:55:36 51°16.692 2°40.068 324.5 13.3 321 22
2007-06-07 06:55:41 51°16.706 2°40.05 324.5 13.2 323 21.5
2007-06-07 06:55:46 51°16.721 2°40.031 324.8 13.2 321 21.4
2007-06-07 06:55:51 51°16.735 2°40.013 324.4 13.2 322 21.4
2007-06-07 06:55:56 51°16.749 2°39.995 324.4 13.3 321 21.1
2007-06-07 06:56:01 51°16.764 2°39.977 324.6 13.3 322 20.9
2007-06-07 06:56:06 51°16.778 2°39.959 324.2 13.2 322 20.4
2007-06-07 06:56:11 51°16.792 2°39.94 324.4 13.3 321 20.2
2007-06-07 06:56:16 51°16.807 2°39.922 324.6 13.3 322 19.9
2007-06-07 06:56:21 51°16.821 2°39.904 324.8 13.3 323 19.2
2007-06-07 06:56:26 51°16.836 2°39.886 325.1 13.3 321 19.1
2007-06-07 06:56:31 51°16.85 2°39.867 325 13.2 321 18.5
2007-06-07 06:56:36 51°16.864 2°39.848 324.4 13.3 321 18.4
2007-06-07 06:56:41 51°16.878 2°39.83 324.4 13.1 322 18.2
2007-06-07 06:56:46 51°16.893 2°39.812 324.5 13.1 321 18.5
2007-06-07 06:56:51 51°16.907 2°39.793 324.4 13.2 320 19.1
2007-06-07 06:56:56 51°16.921 2°39.775 323.8 13.2 321 18.5
2007-06-07 06:57:01 51°16.935 2°39.756 324.4 13.1 321 17.8
2007-06-07 06:57:06 51°16.949 2°39.738 324.2 13.1 321 17.4
2007-06-07 06:57:11 51°16.963 2°39.72 324.4 13.1 320 16.7
2007-06-07 06:57:16 51°16.977 2°39.702 324 13.1 321 16.2
2007-06-07 06:57:21 51°16.991 2°39.683 324.5 13.1 320 15.4
2007-06-07 06:57:26 51°17.006 2°39.665 323.9 13.1 322 15.1
2007-06-07 06:57:31 51°17.02 2°39.646 324.2 13.2 319 14.7
2007-06-07 06:57:36 51°17.034 2°39.628 323.8 13.2 322 14.5
2007-06-07 06:57:41 51°17.048 2°39.609 324.1 13.2 320 14.3
2007-06-07 06:57:46 51°17.062 2°39.591 323.9 13.2 321 14.4
2007-06-07 06:57:51 51°17.076 2°39.572 323.7 13.2 320 14.5
2007-06-07 06:57:56 51°17.091 2°39.554 323.7 13.2 320 14.1
2007-06-07 06:58:01 51°17.105 2°39.535 323.7 13.2 321 14.3
2007-06-07 06:58:06 51°17.119 2°39.516 324.6 13.2 321 13.5
2007-06-07 06:58:11 51°17.133 2°39.498 324.5 13.2 322 13.5
2007-06-07 06:58:16 51°17.148 2°39.48 324.4 13.2 321 13.6
2007-06-07 06:58:21 51°17.162 2°39.462 324.7 13.1 322 13.9
2007-06-07 06:58:26 51°17.176 2°39.444 324.8 13.2 321 13.8
2007-06-07 06:58:31 51°17.19 2°39.426 324.8 13.2 322 13.2
2007-06-07 06:58:36 51°17.205 2°39.408 325.1 13.2 321 12.4
2007-06-07 06:58:41 51°17.219 2°39.39 325 13.1 322 12.6
2007-06-07 06:58:46 51°17.234 2°39.372 324.9 13.2 323 12.2
2007-06-07 06:58:51 51°17.248 2°39.353 325.1 13.2 321 12.2
2007-06-07 06:58:56 51°17.262 2°39.335 324.5 13.2 320 12.2
2007-06-07 06:59:01 51°17.276 2°39.317 323.8 13.2 322 10.9
2007-06-07 06:59:06 51°17.29 2°39.299 324.3 13.1 321 11.4
2007-06-07 06:59:11 51°17.304 2°39.28 324.3 13.2 320 12.1
2007-06-07 06:59:16 51°17.319 2°39.261 323.7 13.3 320 13.3
2007-06-07 06:59:21 51°17.334 2°39.243 324.3 13.5 322 14.6
2007-06-07 06:59:26 51°17.348 2°39.223 325.1 13.5 319 14.6
2007-06-07 06:59:31 51°17.363 2°39.205 323.5 13.5 322 16.5
2007-06-07 06:59:36 51°17.377 2°39.186 324.4 13.5 322 17.8
2007-06-07 06:59:41 51°17.392 2°39.168 325.1 13.5 322 18.2
2007-06-07 06:59:46 51°17.407 2°39.15 324.6 13.4 323 18.8
2007-06-07 06:59:51 51°17.421 2°39.132 324.9 13.4 321 19.8
2007-06-07 06:59:56 51°17.436 2°39.114 324.9 13.5 323 20.5
2007-06-07 07:00:01 51°17.451 2°39.096 324.8 13.4 323 21.3
2007-06-07 07:00:06 51°17.466 2°39.078 324.8 13.3 323 22
2007-06-07 07:00:11 51°17.481 2°39.061 325.1 13.3 324 23.3
2007-06-07 07:00:16 51°17.495 2°39.043 325.1 13.4 321 23.5
2007-06-07 07:00:21 51°17.51 2°39.025 324.4 13.3 323 24.5
2007-06-07 07:00:26 51°17.525 2°39.007 324.2 13.3 321 24.9
2007-06-07 07:00:31 51°17.539 2°38.989 323.5 13.3 323 25.4
2007-06-07 07:00:36 51°17.554 2°38.971 324.1 13.4 322 25.7
2007-06-07 07:00:41 51°17.569 2°38.953 324.1 13.4 324 26.1
2007-06-07 07:00:46 51°17.583 2°38.935 324.8 13.4 322 26.8
2007-06-07 07:00:51 51°17.599 2°38.918 324.2 13.3 323 27.2
2007-06-07 07:00:56 51°17.613 2°38.899 325.1 13.3 322 27.6
2007-06-07 07:01:01 51°17.628 2°38.882 324.4 13.4 324 27.6
2007-06-07 07:01:06 51°17.643 2°38.864 324.8 13.4 322 27.4
2007-06-07 07:01:11 51°17.658 2°38.846 324.4 13.3 323 27.4
2007-06-07 07:01:16 51°17.673 2°38.828 324.5 13.3 321 27.5
2007-06-07 07:01:21 51°17.687 2°38.81 324.1 13.3 324 28
2007-06-07 07:01:26 51°17.701 2°38.791 324.8 13.3 320 27.5
2007-06-07 07:01:31 51°17.716 2°38.774 323.6 13.3 323 27.6
2007-06-07 07:01:36 51°17.73 2°38.755 324.4 13.2 321 27.2
2007-06-07 07:01:41 51°17.745 2°38.738 323.7 13.3 322 27.8
2007-06-07 07:01:46 51°17.76 2°38.72 324.3 13.4 324 27.8
2007-06-07 07:01:51 51°17.775 2°38.702 325 13.5 323 27.7
2007-06-07 07:01:57 51°17.793 2°38.681 324.7 13.5 323 28
2007-06-07 07:02:01 51°17.805 2°38.666 325.2 13.3 322 27.6
2007-06-07 07:02:06 51°17.82 2°38.649 324.4 13.4 324 27.6
2007-06-07 07:02:11 51°17.835 2°38.631 324.7 13.6 323 27.9
2007-06-07 07:02:16 51°17.85 2°38.613 325.1 13.6 325 27.7
2007-06-07 07:02:21 51°17.865 2°38.596 325.6 13.5 325 27.8
2007-06-07 07:02:26 51°17.88 2°38.578 325.5 13.5 324 27.7
2007-06-07 07:02:31 51°17.895 2°38.561 324.9 13.5 324 27.5
2007-06-07 07:02:36 51°17.91 2°38.543 324.8 13.5 324 27.8
2007-06-07 07:02:41 51°17.925 2°38.525 325 13.5 323 27.6
2007-06-07 07:02:46 51°17.94 2°38.508 324.6 13.4 323 27.8
2007-06-07 07:02:51 51°17.955 2°38.489 325.3 13.5 322 27.8
2007-06-07 07:02:56 51°17.97 2°38.471 323.7 13.5 324 27.4
2007-06-07 07:03:01 51°17.985 2°38.454 323.7 13.5 324 27.7
2007-06-07 07:03:06 51°18 2°38.436 324.1 13.5 325 27.6
2007-06-07 07:03:11 51°18.015 2°38.418 324.4 13.5 324 27.7
2007-06-07 07:03:16 51°18.031 2°38.402 323.9 13.4 325 27.7
2007-06-07 07:03:21 51°18.045 2°38.384 324.5 13.4 322 27.8
2007-06-07 07:03:26 51°18.061 2°38.366 323.9 13.5 325 27.8
2007-06-07 07:03:31 51°18.075 2°38.348 324.3 13.4 321 27.7
2007-06-07 07:03:36 51°18.091 2°38.331 323.1 13.4 324 27.4
2007-06-07 07:03:41 51°18.105 2°38.312 324.2 13.4 322 27.4
2007-06-07 07:03:46 51°18.12 2°38.294 322.9 13.4 323 27.5
2007-06-07 07:03:51 51°18.135 2°38.277 322.8 13.4 323 27.2
2007-06-07 07:03:56 51°18.15 2°38.259 323.7 13.5 324 27.3
2007-06-07 07:04:01 51°18.164 2°38.241 324.1 13.4 322 27.3
2007-06-07 07:04:06 51°18.18 2°38.223 323.8 13.5 323 27.6
2007-06-07 07:04:11 51°18.195 2°38.205 324.2 13.5 323 27.2
2007-06-07 07:04:16 51°18.21 2°38.187 324.3 13.4 324 26.9
2007-06-07 07:04:21 51°18.224 2°38.169 324.2 13.5 323 27.4
2007-06-07 07:04:26 51°18.24 2°38.151 323.7 13.5 323 27.5
2007-06-07 07:04:31 51°18.254 2°38.133 324.1 13.4 323 27.4
2007-06-07 07:04:36 51°18.269 2°38.115 324.4 13.4 323 27.3
2007-06-07 07:04:41 51°18.284 2°38.098 323.7 13.5 324 27.3
2007-06-07 07:04:46 51°18.299 2°38.08 324.3 13.5 322 27.3
2007-06-07 07:04:51 51°18.314 2°38.062 323.8 13.5 324 26.9
2007-06-07 07:04:56 51°18.329 2°38.044 325 13.4 323 26.8
2007-06-07 07:05:01 51°18.344 2°38.027 324.4 13.4 323 26.1
2007-06-07 07:05:06 51°18.359 2°38.009 324.3 13.4 323 26.5
2007-06-07 07:05:11 51°18.374 2°37.992 325.1 13.3 325 25.9
2007-06-07 07:05:16 51°18.389 2°37.974 324.6 13.3 322 25.6
2007-06-07 07:05:21 51°18.404 2°37.955 323.7 13.3 323 25.7
2007-06-07 07:05:26 51°18.419 2°37.938 323.7 13.4 322 26
2007-06-07 07:05:31 51°18.433 2°37.919 323.6 13.3 322 25.3
2007-06-07 07:05:36 51°18.448 2°37.902 323.7 13.4 321 25.6
2007-06-07 07:05:41 51°18.463 2°37.883 323.4 13.3 323 24.9
2007-06-07 07:05:46 51°18.478 2°37.866 323.6 13.5 324 25.6
2007-06-07 07:05:51 51°18.493 2°37.848 324.1 13.5 324 25.4
2007-06-07 07:05:56 51°18.509 2°37.831 324.1 13.5 323 25
2007-06-07 07:06:01 51°18.523 2°37.812 324.4 13.5 323 24.5
2007-06-07 07:06:06 51°18.538 2°37.795 324.5 13.5 324 24.2
2007-06-07 07:06:11 51°18.553 2°37.776 324.4 13.4 322 23.9
2007-06-07 07:06:17 51°18.571 2°37.755 324.3 13.4 322 23.8
2007-06-07 07:06:21 51°18.583 2°37.74 324.1 13.3 322 24
2007-06-07 07:06:26 51°18.598 2°37.722 324.7 13.4 322 24.2
2007-06-07 07:06:31 51°18.612 2°37.704 324.5 13.4 323 23
2007-06-07 07:06:37 51°18.63 2°37.682 324.5 13.5 321 22.2
2007-06-07 07:06:41 51°18.642 2°37.667 323.7 13.6 323 21.6
2007-06-07 07:06:46 51°18.656 2°37.648 324 13.5 321 22.9
2007-06-07 07:06:51 51°18.671 2°37.63 323.5 13.6 321 23.3
2007-06-07 07:06:56 51°18.686 2°37.611 323.5 13.6 321 23.1
2007-06-07 07:07:01 51°18.7 2°37.592 323.6 13.5 321 23.5
2007-06-07 07:07:06 51°18.714 2°37.573 323.5 13.4 321 23.1
2007-06-07 07:07:11 51°18.729 2°37.554 323.1 13.4 320 23.2
2007-06-07 07:07:16 51°18.743 2°37.535 323.8 13.5 322 22.8
2007-06-07 07:07:21 51°18.758 2°37.517 324.3 13.4 321 22.4
2007-06-07 07:07:26 51°18.773 2°37.498 324.1 13.4 322 22
2007-06-07 07:07:31 51°18.787 2°37.479 325 13.3 321 21.1
2007-06-07 07:07:36 51°18.802 2°37.461 325 13.3 321 20.1
2007-06-07 07:07:41 51°18.816 2°37.443 324.5 13.3 322 19.5
2007-06-07 07:07:46 51°18.831 2°37.424 325 13.3 321 21.2
2007-06-07 07:07:51 51°18.845 2°37.406 324.3 13.4 321 21.2
2007-06-07 07:07:56 51°18.86 2°37.387 324.4 13.3 320 20.9
2007-06-07 07:08:01 51°18.874 2°37.369 323.9 13.3 322 19.4
2007-06-07 07:08:06 51°18.888 2°37.35 324.4 13.3 318 20
2007-06-07 07:08:11 51°18.902 2°37.332 323.5 13.1 322 21.3
2007-06-07 07:08:16 51°18.916 2°37.313 324.3 13.2 319 20.9
2007-06-07 07:08:21 51°18.93 2°37.295 323.8 13.2 322 20.8
2007-06-07 07:08:26 51°18.944 2°37.276 324.1 13.3 320 20.8
2007-06-07 07:08:31 51°18.958 2°37.257 324.4 13.2 321 19.1
2007-06-07 07:08:37 51°18.975 2°37.235 323.7 13.3 322 18.1
2007-06-07 07:08:41 51°18.987 2°37.221 324.3 13.3 322 19.8
2007-06-07 07:08:46 51°19.001 2°37.202 324.5 13.3 321 20.6
2007-06-07 07:08:51 51°19.016 2°37.184 324.9 13.3 321 19.6
2007-06-07 07:08:56 51°19.03 2°37.165 324.7 13.3 321 18.6
2007-06-07 07:09:01 51°19.044 2°37.147 324.9 13.3 319 19.7
2007-06-07 07:09:06 51°19.059 2°37.128 323.8 13.3 323 20.7
2007-06-07 07:09:11 51°19.073 2°37.11 324.4 13.3 321 20.2
2007-06-07 07:09:16 51°19.088 2°37.092 324.2 13.3 323 20.3
2007-06-07 07:09:21 51°19.102 2°37.074 325.1 13.3 321 20.5
2007-06-07 07:09:26 51°19.117 2°37.055 325.1 13.3 322 20.2
2007-06-07 07:09:31 51°19.131 2°37.037 324.6 13.3 322 20.9
2007-06-07 07:09:36 51°19.146 2°37.019 325.1 13.4 323 21.5
2007-06-07 07:09:41 51°19.16 2°37 324.7 13.3 322 21.4
2007-06-07 07:09:46 51°19.175 2°36.982 324.8 13.3 323 21.9
2007-06-07 07:09:51 51°19.19 2°36.964 325.2 13.4 322 22.3
2007-06-07 07:09:56 51°19.204 2°36.946 325 13.3 322 22
2007-06-07 07:10:01 51°19.218 2°36.927 324.7 13.3 322 22.8
2007-06-07 07:10:06 51°19.233 2°36.909 324.1 13.3 322 22.9
2007-06-07 07:10:11 51°19.248 2°36.891 324.4 13.3 322 22.7
2007-06-07 07:10:16 51°19.262 2°36.873 325.4 13.3 323 23
2007-06-07 07:10:21 51°19.277 2°36.855 325.7 13.3 322 23
2007-06-07 07:10:26 51°19.291 2°36.837 325 13.3 323 22.9
2007-06-07 07:10:31 51°19.306 2°36.819 324.9 13.3 323 23.1
2007-06-07 07:10:37 51°19.323 2°36.797 325 13.3 321 22.5
2007-06-07 07:10:41 51°19.335 2°36.783 324.3 13 324 22.5
2007-06-07 07:10:46 51°19.349 2°36.765 325.2 12.9 320 22.4
2007-06-07 07:10:51 51°19.363 2°36.749 324.3 12.7 324 22.9
2007-06-07 07:10:56 51°19.377 2°36.732 324.7 12.6 322 22.9
2007-06-07 07:11:01 51°19.391 2°36.715 325.2 12.6 324 22.5
2007-06-07 07:11:06 51°19.405 2°36.698 325.3 12.4 323 22.4
2007-06-07 07:11:11 51°19.418 2°36.682 324.6 12.3 322 22.6
2007-06-07 07:11:16 51°19.432 2°36.665 324.8 12.3 322 22.1
2007-06-07 07:11:21 51°19.445 2°36.649 324.4 12.1 322 21.6
2007-06-07 07:11:26 51°19.458 2°36.632 324.4 12.2 323 21
2007-06-07 07:11:31 51°19.472 2°36.616 324.2 12.1 323 20.3
2007-06-07 07:11:36 51°19.485 2°36.6 324.5 12.2 323 21.6
2007-06-07 07:11:41 51°19.499 2°36.584 324.7 12.2 323 22.2
2007-06-07 07:11:46 51°19.512 2°36.567 325.1 12.2 322 21.9
2007-06-07 07:11:51 51°19.526 2°36.551 324.4 12.2 324 22.2
2007-06-07 07:11:56 51°19.539 2°36.535 324.6 12.2 324 22.2
2007-06-07 07:12:01 51°19.553 2°36.519 324.7 12.2 322 22.2
2007-06-07 07:12:06 51°19.566 2°36.502 324.6 12.2 323 22.1
2007-06-07 07:12:11 51°19.579 2°36.486 324.5 12.2 322 22.1
2007-06-07 07:12:16 51°19.593 2°36.47 324 12 325 21.9
2007-06-07 07:12:21 51°19.608 2°36.457 326.1 12 330 22.5
2007-06-07 07:12:26 51°19.622 2°36.445 331.5 12 334 22.2
2007-06-07 07:12:31 51°19.638 2°36.433 334.5 12 336 21.4
2007-06-07 07:12:36 51°19.653 2°36.424 337.2 12 339 21
2007-06-07 07:12:41 51°19.669 2°36.415 339.2 12 342 22.2
2007-06-07 07:12:46 51°19.685 2°36.408 343.1 12 345 22.6
2007-06-07 07:12:51 51°19.701 2°36.403 346.7 11.6 349 22.8
2007-06-07 07:12:56 51°19.716 2°36.399 350.1 11.3 351 22.8
2007-06-07 07:13:01 51°19.731 2°36.397 352 10.8 357 20.2
2007-06-07 07:13:06 51°19.746 2°36.398 356 10.4 2 21.9
2007-06-07 07:13:11 51°19.759 2°36.401 2.1 9.8 11 22.6
2007-06-07 07:13:16 51°19.771 2°36.409 10.7 9 22 22.2
2007-06-07 07:13:21 51°19.781 2°36.418 20.8 8.5 31 21.5
2007-06-07 07:13:26 51°19.79 2°36.429 30.1 8.2 40 20.6
2007-06-07 07:13:31 51°19.798 2°36.441 39.7 8.1 44 22.1
2007-06-07 07:13:37 51°19.808 2°36.458 47.1 8.2 47 22.8
2007-06-07 07:13:41 51°19.814 2°36.469 51.1 8.2 49 23.2
2007-06-07 07:13:46 51°19.821 2°36.482 53.6 8.2 48 23
2007-06-07 07:13:51 51°19.829 2°36.495 52.9 8.2 45 22.3
2007-06-07 07:13:56 51°19.838 2°36.507 49.8 8.1 39 19.9
2007-06-07 07:14:01 51°19.847 2°36.517 44.4 8 33 21.8
2007-06-07 07:14:06 51°19.857 2°36.525 38.2 8.1 30 22.7
2007-06-07 07:14:11 51°19.866 2°36.534 33.8 8.1 30 23
2007-06-07 07:14:16 51°19.876 2°36.542 31.2 8.1 28 22.8
2007-06-07 07:14:21 51°19.886 2°36.551 29.9 7.7 31 22.4
2007-06-07 07:14:26 51°19.895 2°36.56 31.6 7.4 33 22.3
2007-06-07 07:14:31 51°19.902 2°36.569 34.8 7.2 38 20.7
2007-06-07 07:14:36 51°19.91 2°36.579 38.6 6.9 42 21
2007-06-07 07:14:41 51°19.916 2°36.59 43.8 6.6 46 21.8
2007-06-07 07:14:46 51°19.922 2°36.6 48.2 6.4 47 22
2007-06-07 07:14:51 51°19.927 2°36.611 51.3 6.2 51 22.5
2007-06-07 07:14:56 51°19.933 2°36.621 53.6 6.2 52 21.3
2007-06-07 07:15:01 51°19.938 2°36.632 54.9 5.9 51 21
2007-06-07 07:15:06 51°19.943 2°36.642 55.1 5.7 51 21.6
2007-06-07 07:15:11 51°19.948 2°36.651 54.4 5.6 49 21.8
2007-06-07 07:15:16 51°19.953 2°36.66 53.3 5.6 49 21.9
2007-06-07 07:15:21 51°19.958 2°36.669 51.8 5.4 48 22
2007-06-07 07:15:26 51°19.963 2°36.677 50.2 5.3 46 22.3
2007-06-07 07:15:31 51°19.968 2°36.686 48.5 5.4 46 22.1
2007-06-07 07:15:36 51°19.974 2°36.694 46.9 5.3 44 22.3
2007-06-07 07:15:41 51°19.979 2°36.702 45.8 5.3 44 22.3
2007-06-07 07:15:46 51°19.985 2°36.71 45.4 5.3 43 22
2007-06-07 07:15:51 51°19.99 2°36.719 45.4 5.5 45 22
2007-06-07 07:15:56 51°19.995 2°36.727 45.7 5.5 45 21.9
2007-06-07 07:16:01 51°20.001 2°36.736 46.4 5.6 44 22.5
2007-06-07 07:16:06 51°20.006 2°36.745 47.2 5.5 44 22.5
2007-06-07 07:16:11 51°20.012 2°36.754 48.2 5.5 47 22.6
2007-06-07 07:16:16 51°20.017 2°36.763 49 5.6 47 22.3
2007-06-07 07:16:21 51°20.022 2°36.772 50.5 5.7 49 21.1
2007-06-07 07:16:26 51°20.027 2°36.782 51.9 5.5 52 21.2
2007-06-07 07:16:31 51°20.031 2°36.792 53.2 5.5 52 21.7